createdAt,value
2014-09-25T00:00:44.716Z,68.54
2014-09-25T00:01:49.406Z,68.88
2014-09-25T00:02:54.081Z,68.26
2014-09-25T00:03:59.364Z,67.56
2014-09-25T00:05:04.335Z,68.85
2014-09-25T00:06:09.024Z,69.03
2014-09-25T00:07:13.714Z,69.69
2014-09-25T00:08:18.387Z,69.11
2014-09-25T00:09:23.374Z,68.43
2014-09-25T00:10:28.048Z,68.48
2014-09-25T00:11:32.738Z,69.72
2014-09-25T00:12:37.411Z,69.73
2014-09-25T00:13:42.101Z,68.85
2014-09-25T00:14:46.774Z,69.22
2014-09-25T00:15:51.761Z,69.68
2014-09-25T00:16:56.435Z,70.09
2014-09-25T00:18:01.125Z,70.22
2014-09-25T00:19:06.407Z,70.24
2014-09-25T00:20:11.379Z,69.79
2014-09-25T00:21:16.069Z,69.72
2014-09-25T00:22:20.743Z,70.2
2014-09-25T00:23:25.432Z,68.91
2014-09-25T00:24:30.106Z,69.63
2014-09-25T00:25:35.092Z,69.85
2014-09-25T00:26:39.766Z,69.45
2014-09-25T00:27:44.456Z,69.73
2014-09-25T00:28:49.443Z,69.55
2014-09-25T00:29:54.116Z,69.4
2014-09-25T00:30:59.102Z,68.85
2014-09-25T00:32:03.793Z,68.57
2014-09-25T00:33:08.466Z,68.98
2014-09-25T00:34:13.453Z,69.67
2014-09-25T00:35:18.424Z,69.35
2014-09-25T00:36:23.113Z,69.48
2014-09-25T00:37:27.114Z,69.56
2014-09-25T00:38:32.086Z,69.64
2014-09-25T00:39:36.776Z,69.76
2014-09-25T00:40:41.449Z,69.28
2014-09-25T00:41:46.139Z,69.38
2014-09-25T00:42:50.813Z,69.58
2014-09-25T00:43:55.502Z,69.31
2014-09-25T00:45:00.192Z,69.73
2014-09-25T00:46:04.866Z,70.71
2014-09-25T00:47:09.556Z,70.4
2014-09-25T00:48:14.230Z,69.96
2014-09-25T00:49:18.919Z,70.08
2014-09-25T00:50:23.593Z,70.04
2014-09-25T00:51:28.580Z,70.3
2014-09-25T00:52:33.268Z,69.86
2014-09-25T00:53:37.943Z,70.12
2014-09-25T00:54:42.648Z,70.86
2014-09-25T00:55:47.322Z,70.56
2014-09-25T00:56:52.310Z,70.25
2014-09-25T00:57:56.999Z,70.41
2014-09-25T00:59:01.969Z,70.41
2014-09-25T01:00:06.658Z,70.18
2014-09-25T01:01:11.629Z,70.9
2014-09-25T01:02:16.320Z,71.16
2014-09-25T01:03:21.306Z,70.48
2014-09-25T01:04:26.573Z,70.49
2014-09-25T01:05:31.263Z,70.73
2014-09-25T01:06:36.234Z,70
2014-09-25T01:07:40.907Z,70.15
2014-09-25T01:08:45.597Z,70.16
2014-09-25T01:09:50.584Z,70.2
2014-09-25T01:10:55.554Z,70.46
2014-09-25T01:12:00.244Z,71.14
2014-09-25T01:13:05.231Z,71.21
2014-09-25T01:14:09.904Z,71.48
2014-09-25T01:15:14.599Z,72.03
2014-09-25T01:16:19.290Z,71.65
2014-09-25T01:17:23.963Z,71.64
2014-09-25T01:18:28.652Z,71.82
2014-09-25T01:19:33.327Z,72.41
2014-09-25T01:20:38.032Z,72.38
2014-09-25T01:21:43.018Z,72.24
2014-09-25T01:22:47.693Z,71.82
2014-09-25T01:23:52.366Z,71.72
2014-09-25T01:24:57.056Z,71.42
2014-09-25T01:26:01.730Z,70.67
2014-09-25T01:27:06.419Z,71.2
2014-09-25T01:28:11.093Z,71.11
2014-09-25T01:29:15.767Z,71.22
2014-09-25T01:30:20.458Z,70.89
2014-09-25T01:31:24.459Z,71.14
2014-09-25T01:32:29.133Z,70.82
2014-09-25T01:33:34.104Z,70.64
2014-09-25T01:34:39.091Z,70.7
2014-09-25T01:35:43.764Z,71.02
2014-09-25T01:36:48.735Z,70.85
2014-09-25T01:37:53.425Z,70.46
2014-09-25T01:38:58.395Z,70.7
2014-09-25T01:40:03.085Z,71.03
2014-09-25T01:41:08.056Z,70.95
2014-09-25T01:42:12.746Z,71.33
2014-09-25T01:43:17.419Z,71.41
2014-09-25T01:44:22.109Z,70.93
2014-09-25T01:45:26.783Z,71.25
2014-09-25T01:46:31.473Z,71.68
2014-09-25T01:47:36.146Z,71.65
2014-09-25T01:48:40.820Z,71.43
2014-09-25T01:49:45.510Z,71.03
2014-09-25T01:50:50.183Z,71.09
2014-09-25T01:51:54.874Z,71.5
2014-09-25T01:52:59.547Z,71.14
2014-09-25T01:54:04.237Z,70.88
2014-09-25T01:55:08.911Z,71.33
2014-09-25T01:56:13.600Z,71.46
2014-09-25T01:57:18.274Z,71.97
2014-09-25T01:58:23.261Z,72.24
2014-09-25T01:59:27.935Z,72.48
2014-09-25T02:00:32.625Z,72.38
2014-09-25T02:01:37.298Z,72.52
2014-09-25T02:02:41.972Z,72.82
2014-09-25T02:03:46.662Z,72.76
2014-09-25T02:04:51.632Z,72.31
2014-09-25T02:05:56.322Z,71.83
2014-09-25T02:07:00.996Z,71.96
2014-09-25T02:08:05.982Z,71.41
2014-09-25T02:09:10.657Z,71.36
2014-09-25T02:10:15.346Z,71.54
2014-09-25T02:11:20.020Z,72.03
2014-09-25T02:12:24.709Z,71.35
2014-09-25T02:13:29.383Z,71.89
2014-09-25T02:14:34.073Z,72.14
2014-09-25T02:15:38.747Z,71.57
2014-09-25T02:16:43.437Z,72.12
2014-09-25T02:17:48.110Z,71.81
2014-09-25T02:18:53.096Z,71.92
2014-09-25T02:19:57.084Z,72.09
2014-09-25T02:21:01.772Z,72.15
2014-09-25T02:22:06.447Z,71.99
2014-09-25T02:23:11.137Z,71.55
2014-09-25T02:24:15.811Z,70.96
2014-09-25T02:25:20.500Z,71.15
2014-09-25T02:26:25.471Z,72.08
2014-09-25T02:27:30.457Z,72.03
2014-09-25T02:28:35.428Z,71.7
2014-09-25T02:29:40.415Z,71.82
2014-09-25T02:30:45.088Z,72.18
2014-09-25T02:31:50.075Z,72.41
2014-09-25T02:32:55.045Z,71.8
2014-09-25T02:34:00.033Z,70.96
2014-09-25T02:35:04.707Z,71.93
2014-09-25T02:36:09.693Z,71.15
2014-09-25T02:37:14.367Z,71.44
2014-09-25T02:38:19.055Z,71.38
2014-09-25T02:39:23.730Z,71.37
2014-09-25T02:40:28.420Z,72.06
2014-09-25T02:41:33.095Z,71.9
2014-09-25T02:42:37.767Z,71.42
2014-09-25T02:43:42.754Z,71.09
2014-09-25T02:44:47.428Z,71.97
2014-09-25T02:45:52.118Z,72.33
2014-09-25T02:46:56.791Z,72.19
2014-09-25T02:48:01.481Z,72.44
2014-09-25T02:49:06.155Z,72.44
2014-09-25T02:50:10.845Z,72.44
2014-09-25T02:51:15.518Z,72.67
2014-09-25T02:52:20.207Z,72.74
2014-09-25T02:53:25.179Z,72.68
2014-09-25T02:54:29.869Z,72.18
2014-09-25T02:55:34.558Z,72.38
2014-09-25T02:56:39.571Z,72.44
2014-09-25T02:57:44.283Z,72.88
2014-09-25T02:58:49.011Z,72.52
2014-09-25T02:59:53.722Z,72.24
2014-09-25T03:00:58.448Z,72.09
2014-09-25T03:02:03.432Z,72.64
2014-09-25T03:03:08.135Z,71.87
2014-09-25T03:04:12.823Z,72.12
2014-09-25T03:05:17.526Z,71.53
2014-09-25T03:06:22.209Z,71.36
2014-09-25T03:07:26.904Z,71.35
2014-09-25T03:08:31.879Z,71.08
2014-09-25T03:09:36.572Z,71.17
2014-09-25T03:10:41.252Z,71.73
2014-09-25T03:11:46.241Z,71.63
2014-09-25T03:12:50.917Z,71.23
2014-09-25T03:13:55.607Z,71.28
2014-09-25T03:15:00.283Z,72.3
2014-09-25T03:16:04.958Z,72.43
2014-09-25T03:17:09.945Z,72.01
2014-09-25T03:18:14.620Z,71.63
2014-09-25T03:19:19.607Z,71.61
2014-09-25T03:20:24.282Z,71.56
2014-09-25T03:21:28.972Z,71.42
2014-09-25T03:22:33.662Z,71.15
2014-09-25T03:23:38.400Z,71.66
2014-09-25T03:24:43.075Z,71.31
2014-09-25T03:25:47.764Z,71.77
2014-09-25T03:26:52.438Z,71.86
2014-09-25T03:27:57.127Z,72.09
2014-09-25T03:29:01.801Z,72.18
2014-09-25T03:30:06.491Z,71.75
2014-09-25T03:31:11.180Z,71.64
2014-09-25T03:32:15.854Z,72.18
2014-09-25T03:33:20.841Z,71.82
2014-09-25T03:34:25.515Z,71.73
2014-09-25T03:35:30.205Z,71.71
2014-09-25T03:36:34.878Z,72.12
2014-09-25T03:37:39.567Z,72.07
2014-09-25T03:38:44.242Z,71.77
2014-09-25T03:39:48.931Z,72.08
2014-09-25T03:40:53.606Z,72.04
2014-09-25T03:41:58.295Z,72.06
2014-09-25T03:43:03.266Z,72.24
2014-09-25T03:44:07.954Z,71.8
2014-09-25T03:45:12.926Z,72.15
2014-09-25T03:46:17.616Z,72.34
2014-09-25T03:47:22.289Z,72.52
2014-09-25T03:48:26.963Z,72.48
2014-09-25T03:49:31.653Z,71.83
2014-09-25T03:50:36.358Z,71.92
2014-09-25T03:51:41.047Z,71.67
2014-09-25T03:52:45.722Z,71.79
2014-09-25T03:53:50.396Z,72.19
2014-09-25T03:54:55.085Z,72.19
2014-09-25T03:55:59.775Z,72.46
2014-09-25T03:57:04.449Z,71.94
2014-09-25T03:58:09.123Z,72.02
2014-09-25T03:59:14.109Z,72.18
2014-09-25T04:00:18.783Z,73.11
2014-09-25T04:01:23.473Z,72.35
2014-09-25T04:02:28.148Z,72.45
2014-09-25T04:03:32.836Z,71.69
2014-09-25T04:04:37.807Z,71.73
2014-09-25T04:05:42.497Z,72.05
2014-09-25T04:06:47.467Z,71.62
2014-09-25T04:07:52.453Z,71.54
2014-09-25T04:08:57.128Z,71.43
2014-09-25T04:10:02.115Z,71.79
2014-09-25T04:11:06.789Z,71.67
2014-09-25T04:12:11.478Z,71.88
2014-09-25T04:13:16.152Z,72.54
2014-09-25T04:14:21.138Z,72.79
2014-09-25T04:15:25.812Z,72.62
2014-09-25T04:16:30.800Z,71.8
2014-09-25T04:17:35.472Z,71.33
2014-09-25T04:18:40.443Z,71.62
2014-09-25T04:19:45.431Z,72.23
2014-09-25T04:20:50.402Z,71.8
2014-09-25T04:21:55.091Z,71.34
2014-09-25T04:22:59.766Z,71.53
2014-09-25T04:24:04.752Z,71.71
2014-09-25T04:25:09.440Z,71.14
2014-09-25T04:26:14.115Z,71.34
2014-09-25T04:27:18.805Z,71.22
2014-09-25T04:28:23.479Z,71.66
2014-09-25T04:29:28.153Z,72.18
2014-09-25T04:30:32.842Z,71.7
2014-09-25T04:31:37.516Z,71.69
2014-09-25T04:32:42.205Z,71.5
2014-09-25T04:33:46.880Z,71.12
2014-09-25T04:34:51.569Z,71.5
2014-09-25T04:35:56.243Z,71.32
2014-09-25T04:37:00.918Z,71.59
2014-09-25T04:38:05.607Z,71.48
2014-09-25T04:39:10.280Z,71.63
2014-09-25T04:40:14.970Z,71.54
2014-09-25T04:41:19.644Z,71.05
2014-09-25T04:42:24.334Z,71.18
2014-09-25T04:43:29.305Z,71.27
2014-09-25T04:44:34.291Z,71.86
2014-09-25T04:45:38.965Z,71.42
2014-09-25T04:46:43.670Z,71.71
2014-09-25T04:47:48.344Z,71.72
2014-09-25T04:48:53.034Z,71.59
2014-09-25T04:49:57.707Z,71.48
2014-09-25T04:51:02.695Z,71.97
2014-09-25T04:52:07.368Z,72.46
2014-09-25T04:53:12.058Z,73.08
2014-09-25T04:54:16.731Z,73.2
2014-09-25T04:55:21.717Z,72.51
2014-09-25T04:56:26.392Z,72.6
2014-09-25T04:57:31.082Z,72.39
2014-09-25T04:58:36.052Z,72.19
2014-09-25T04:59:40.742Z,71.86
2014-09-25T05:00:45.416Z,71.16
2014-09-25T05:01:50.403Z,71.35
2014-09-25T05:02:55.076Z,71.34
2014-09-25T05:04:00.079Z,71.1
2014-09-25T05:05:04.752Z,71.89
2014-09-25T05:06:09.441Z,71.68
2014-09-25T05:07:14.116Z,72.11
2014-09-25T05:08:19.103Z,72.69
2014-09-25T05:09:23.776Z,72.12
2014-09-25T05:10:28.762Z,71.1
2014-09-25T05:11:33.436Z,70.81
2014-09-25T05:12:38.423Z,71.39
2014-09-25T05:13:43.113Z,72.05
2014-09-25T05:14:47.786Z,72.06
2014-09-25T05:15:52.476Z,72.08
2014-09-25T05:16:57.150Z,72.24
2014-09-25T05:18:02.136Z,72.65
2014-09-25T05:19:06.810Z,72.29
2014-09-25T05:20:11.501Z,72.13
2014-09-25T05:21:16.471Z,71.91
2014-09-25T05:22:21.160Z,71.87
2014-09-25T05:23:25.834Z,71.89
2014-09-25T05:24:30.821Z,71.7
2014-09-25T05:25:35.807Z,71.48
2014-09-25T05:26:40.497Z,71.7
2014-09-25T05:27:45.468Z,71.23
2014-09-25T05:28:50.157Z,70.91
2014-09-25T05:29:54.831Z,71.96
2014-09-25T05:30:59.130Z,72.35
2014-09-25T05:32:03.819Z,71.89
2014-09-25T05:33:08.806Z,71.94
2014-09-25T05:34:13.495Z,72.22
2014-09-25T05:35:18.186Z,72.45
2014-09-25T05:36:22.859Z,72.36
2014-09-25T05:37:27.549Z,72.41
2014-09-25T05:38:32.223Z,72.21
2014-09-25T05:39:36.913Z,71.97
2014-09-25T05:40:41.602Z,71.55
2014-09-25T05:41:46.276Z,71.83
2014-09-25T05:42:51.267Z,71.93
2014-09-25T05:43:55.941Z,72.45
2014-09-25T05:45:00.631Z,72.89
2014-09-25T05:46:05.304Z,72.33
2014-09-25T05:47:10.291Z,72.25
2014-09-25T05:48:14.980Z,72.67
2014-09-25T05:49:19.654Z,72.69
2014-09-25T05:50:24.642Z,72.9
2014-09-25T05:51:29.315Z,72.83
2014-09-25T05:52:34.004Z,72.37
2014-09-25T05:53:38.678Z,72.08
2014-09-25T05:54:43.368Z,71.94
2014-09-25T05:55:48.057Z,71.64
2014-09-25T05:56:52.731Z,71.56
2014-09-25T05:57:57.421Z,72.24
2014-09-25T05:59:02.111Z,72.05
2014-09-25T06:00:07.378Z,72.43
2014-09-25T06:01:12.068Z,72.03
2014-09-25T06:02:16.757Z,71.73
2014-09-25T06:03:21.431Z,71.43
2014-09-25T06:04:26.121Z,71.31
2014-09-25T06:05:30.811Z,71.5
2014-09-25T06:06:35.797Z,71.14
2014-09-25T06:07:40.471Z,71.08
2014-09-25T06:08:45.160Z,72.1
2014-09-25T06:09:49.849Z,72.64
2014-09-25T06:10:54.540Z,72.45
2014-09-25T06:11:59.214Z,72.14
2014-09-25T06:13:03.903Z,72.48
2014-09-25T06:14:08.890Z,72.97
2014-09-25T06:15:13.861Z,72.22
2014-09-25T06:16:18.550Z,72.65
2014-09-25T06:17:23.271Z,72.56
2014-09-25T06:18:27.961Z,71.64
2014-09-25T06:19:32.634Z,71.87
2014-09-25T06:20:37.620Z,72.54
2014-09-25T06:21:42.295Z,71.9
2014-09-25T06:22:46.984Z,72.06
2014-09-25T06:23:51.673Z,71.76
2014-09-25T06:24:56.645Z,73.03
2014-09-25T06:26:01.631Z,72.42
2014-09-25T06:27:06.321Z,71.31
2014-09-25T06:28:11.010Z,71.16
2014-09-25T06:29:15.684Z,71.46
2014-09-25T06:30:20.374Z,71.91
2014-09-25T06:31:25.048Z,71.51
2014-09-25T06:32:30.034Z,71.47
2014-09-25T06:33:34.724Z,70.96
2014-09-25T06:34:39.398Z,67.32
2014-09-25T06:35:44.384Z,67.37
2014-09-25T06:36:49.073Z,66.41
2014-09-25T06:37:53.763Z,65.7
2014-09-25T06:38:58.437Z,66.87
2014-09-25T06:40:02.440Z,67.83
2014-09-25T06:41:07.129Z,68.3
2014-09-25T06:42:12.397Z,68.25
2014-09-25T06:43:17.086Z,68.44
2014-09-25T06:44:21.776Z,69.1
2014-09-25T06:45:26.762Z,69
2014-09-25T06:46:31.436Z,69.52
2014-09-25T06:47:36.127Z,69.64
2014-09-25T06:48:40.815Z,69.86
2014-09-25T06:49:45.505Z,69.02
2014-09-25T06:50:50.179Z,69.32
2014-09-25T06:51:55.165Z,69.35
2014-09-25T06:52:59.854Z,69.45
2014-09-25T06:54:04.826Z,69.9
2014-09-25T06:55:09.516Z,69.86
2014-09-25T06:56:14.205Z,70.17
2014-09-25T06:57:18.207Z,70.17
2014-09-25T06:58:22.912Z,70.9
2014-09-25T06:59:27.883Z,71.21
2014-09-25T07:00:32.869Z,71.11
2014-09-25T07:01:37.840Z,70.67
2014-09-25T07:02:42.530Z,71.06
2014-09-25T07:03:47.501Z,71.05
2014-09-25T07:04:52.190Z,70.07
2014-09-25T07:05:56.864Z,69.44
2014-09-25T07:07:01.554Z,68.75
2014-09-25T07:08:06.228Z,69.21
2014-09-25T07:09:11.214Z,68.6
2014-09-25T07:10:15.888Z,68.5
2014-09-25T07:11:20.875Z,68.05
2014-09-25T07:12:25.549Z,67.27
2014-09-25T07:13:30.238Z,66.93
2014-09-25T07:14:34.928Z,67.59
2014-09-25T07:15:39.898Z,66.99
2014-09-25T07:16:43.900Z,66.94
2014-09-25T07:17:48.574Z,67.18
2014-09-25T07:18:53.561Z,66.84
2014-09-25T07:19:58.235Z,67.18
2014-09-25T07:21:03.221Z,67.71
2014-09-25T07:22:07.910Z,67.39
2014-09-25T07:23:12.585Z,66.96
2014-09-25T07:24:17.571Z,66.36
2014-09-25T07:25:22.245Z,66.51
2014-09-25T07:26:26.935Z,67.26
2014-09-25T07:27:31.906Z,66.93
2014-09-25T07:28:35.923Z,66.25
2014-09-25T07:29:40.910Z,66.13
2014-09-25T07:30:45.585Z,65.71
2014-09-25T07:31:50.273Z,65.73
2014-09-25T07:32:54.946Z,67.28
2014-09-25T07:33:59.637Z,67.47
2014-09-25T07:35:04.310Z,67.79
2014-09-25T07:36:09.296Z,66.99
2014-09-25T07:37:13.985Z,66.49
2014-09-25T07:38:18.707Z,67.78
2014-09-25T07:39:23.380Z,66.57
2014-09-25T07:40:28.054Z,66.57
2014-09-25T07:41:32.744Z,66.55
2014-09-25T07:42:37.434Z,65.88
2014-09-25T07:43:42.405Z,66.12
2014-09-25T07:44:47.094Z,65.66
2014-09-25T07:45:51.799Z,66.17
2014-09-25T07:46:56.770Z,65.8
2014-09-25T07:48:01.756Z,65.4
2014-09-25T07:49:06.743Z,65.46
2014-09-25T07:50:12.027Z,66.19
2014-09-25T07:51:16.700Z,66.36
2014-09-25T07:52:21.390Z,64.86
2014-09-25T07:53:26.376Z,65.5
2014-09-25T07:54:31.051Z,65.73
2014-09-25T07:55:35.740Z,66.19
2014-09-25T07:56:40.430Z,64.99
2014-09-25T07:57:45.103Z,65.7
2014-09-25T07:58:49.793Z,64.53
2014-09-25T07:59:54.467Z,65.25
2014-09-25T08:00:59.172Z,65.29
2014-09-25T08:02:03.846Z,65.77
2014-09-25T08:03:08.535Z,65.61
2014-09-25T08:04:13.225Z,65.52
2014-09-25T08:05:17.899Z,64.97
2014-09-25T08:06:22.588Z,64.39
2014-09-25T08:07:27.278Z,63.89
2014-09-25T08:08:31.953Z,64.53
2014-09-25T08:09:36.642Z,65.31
2014-09-25T08:10:41.331Z,66.04
2014-09-25T08:11:46.005Z,66.44
2014-09-25T08:12:50.695Z,64.53
2014-09-25T08:13:55.384Z,63.67
2014-09-25T08:15:00.074Z,62.55
2014-09-25T08:16:04.748Z,62.05
2014-09-25T08:17:09.437Z,61.29
2014-09-25T08:18:14.111Z,62.5
2014-09-25T08:19:19.098Z,63.19
2014-09-25T08:20:24.085Z,62.58
2014-09-25T08:21:28.758Z,62.05
2014-09-25T08:22:33.744Z,61.92
2014-09-25T08:23:38.715Z,61.34
2014-09-25T08:24:43.405Z,61.57
2014-09-25T08:25:48.376Z,62.62
2014-09-25T08:26:53.065Z,62.15
2014-09-25T08:27:57.755Z,62.5
2014-09-25T08:29:02.444Z,62.02
2014-09-25T08:30:07.134Z,63.24
2014-09-25T08:31:11.824Z,62.16
2014-09-25T08:32:16.810Z,63.01
2014-09-25T08:33:21.484Z,63.46
2014-09-25T08:34:26.173Z,63.94
2014-09-25T08:35:30.848Z,62.55
2014-09-25T08:36:35.537Z,60.96
2014-09-25T08:37:40.805Z,61.49
2014-09-25T08:38:45.494Z,60.49
2014-09-25T08:39:50.183Z,59.96
2014-09-25T08:40:54.874Z,60.4
2014-09-25T08:41:59.547Z,61.91
2014-09-25T08:43:04.236Z,62.14
2014-09-25T08:44:08.911Z,61.6
2014-09-25T08:45:13.601Z,60.48
2014-09-25T08:46:18.275Z,59.24
2014-09-25T08:47:22.964Z,59.81
2014-09-25T08:48:27.638Z,59.87
2014-09-25T08:49:32.328Z,60.57
2014-09-25T08:50:37.002Z,59.57
2014-09-25T08:51:41.691Z,60.47
2014-09-25T08:52:46.365Z,60.32
2014-09-25T08:53:51.055Z,61.38
2014-09-25T08:54:55.729Z,59.72
2014-09-25T08:56:00.731Z,60.15
2014-09-25T08:57:05.701Z,60.42
2014-09-25T08:58:10.391Z,61.53
2014-09-25T08:59:15.065Z,61.15
2014-09-25T09:00:19.755Z,61.84
2014-09-25T09:01:24.429Z,60.81
2014-09-25T09:02:29.118Z,60.76
2014-09-25T09:03:34.104Z,62.22
2014-09-25T09:04:38.778Z,62.36
2014-09-25T09:05:43.468Z,62.19
2014-09-25T09:06:48.157Z,61.89
2014-09-25T09:07:53.128Z,61.36
2014-09-25T09:08:57.819Z,61.38
2014-09-25T09:10:02.508Z,60.86
2014-09-25T09:11:07.478Z,61.45
2014-09-25T09:12:12.167Z,61.99
2014-09-25T09:13:16.842Z,62.26
2014-09-25T09:14:21.829Z,62.38
2014-09-25T09:15:26.502Z,62.04
2014-09-25T09:16:31.192Z,60.97
2014-09-25T09:17:36.163Z,61.12
2014-09-25T09:18:40.852Z,61.01
2014-09-25T09:19:45.840Z,61.29
2014-09-25T09:20:50.513Z,61.6
2014-09-25T09:21:55.202Z,62.61
2014-09-25T09:22:59.876Z,62.75
2014-09-25T09:24:04.566Z,62.74
2014-09-25T09:25:09.255Z,62.27
2014-09-25T09:26:13.944Z,61.99
2014-09-25T09:27:18.619Z,61.78
2014-09-25T09:28:23.605Z,61.64
2014-09-25T09:29:28.279Z,61.26
2014-09-25T09:30:32.969Z,62.55
2014-09-25T09:31:37.643Z,63.13
2014-09-25T09:32:42.332Z,62.46
2014-09-25T09:33:47.319Z,62.32
2014-09-25T09:34:51.994Z,63.15
2014-09-25T09:35:56.980Z,62.82
2014-09-25T09:37:01.653Z,62.75
2014-09-25T09:38:06.343Z,62.75
2014-09-25T09:39:11.017Z,63.34
2014-09-25T09:40:15.706Z,62.63
2014-09-25T09:41:20.381Z,62.12
2014-09-25T09:42:25.367Z,62.47
2014-09-25T09:43:30.056Z,62.06
2014-09-25T09:44:34.730Z,63.19
2014-09-25T09:45:39.420Z,63.13
2014-09-25T09:46:44.392Z,62.77
2014-09-25T09:47:49.080Z,61.89
2014-09-25T09:48:53.770Z,62.36
2014-09-25T09:49:58.460Z,62.31
2014-09-25T09:51:03.133Z,61.92
2014-09-25T09:52:07.854Z,61.54
2014-09-25T09:53:12.529Z,61.59
2014-09-25T09:54:17.218Z,61.39
2014-09-25T09:55:22.188Z,60.84
2014-09-25T09:56:26.878Z,62.85
2014-09-25T09:57:31.568Z,61.38
2014-09-25T09:58:36.241Z,61.29
2014-09-25T09:59:41.228Z,61.37
2014-09-25T10:00:46.199Z,60.79
2014-09-25T10:01:50.888Z,60.8
2014-09-25T10:02:55.562Z,59.85
2014-09-25T10:04:00.252Z,59.56
2014-09-25T10:05:04.927Z,59.29
2014-09-25T10:06:09.615Z,58.83
2014-09-25T10:07:14.289Z,59.43
2014-09-25T10:08:19.276Z,59.39
2014-09-25T10:09:24.263Z,59.47
2014-09-25T10:10:28.952Z,60.35
2014-09-25T10:11:33.626Z,60.65
2014-09-25T10:12:38.362Z,60.2
2014-09-25T10:13:43.036Z,59.89
2014-09-25T10:14:48.023Z,59.73
2014-09-25T10:15:52.697Z,60.56
2014-09-25T10:16:57.386Z,59.78
2014-09-25T10:18:02.060Z,58.44
2014-09-25T10:19:06.750Z,59.08
2014-09-25T10:20:11.423Z,58.65
2014-09-25T10:21:16.410Z,59.07
2014-09-25T10:22:21.085Z,58.11
2014-09-25T10:23:26.070Z,59.2
2014-09-25T10:24:30.759Z,59.54
2014-09-25T10:25:35.434Z,59.47
2014-09-25T10:26:40.421Z,59.41
2014-09-25T10:27:45.095Z,59.47
2014-09-25T10:28:49.784Z,58.7
2014-09-25T10:29:54.474Z,59.32
2014-09-25T10:30:59.147Z,60.67
2014-09-25T10:32:04.134Z,58.37
2014-09-25T10:33:08.823Z,58.9
2014-09-25T10:34:13.497Z,59.45
2014-09-25T10:35:18.187Z,59.6
2014-09-25T10:36:22.862Z,58.45
2014-09-25T10:37:27.551Z,57.83
2014-09-25T10:38:32.224Z,59.27
2014-09-25T10:39:37.211Z,58.92
2014-09-25T10:40:41.901Z,58.38
2014-09-25T10:41:46.589Z,59.27
2014-09-25T10:42:51.561Z,58.53
2014-09-25T10:43:56.251Z,58.78
2014-09-25T10:45:00.924Z,58.75
2014-09-25T10:46:05.614Z,58.27
2014-09-25T10:47:10.319Z,58.08
2014-09-25T10:48:15.290Z,58.7
2014-09-25T10:49:19.979Z,57.76
2014-09-25T10:50:24.653Z,57.48
2014-09-25T10:51:29.343Z,58.03
2014-09-25T10:52:34.018Z,58.39
2014-09-25T10:53:38.706Z,57.7
2014-09-25T10:54:43.396Z,57.26
2014-09-25T10:55:48.367Z,56.83
2014-09-25T10:56:53.057Z,57.32
2014-09-25T10:57:57.730Z,57.35
2014-09-25T10:59:02.717Z,57.23
2014-09-25T11:00:07.703Z,58.35
2014-09-25T11:01:12.377Z,56.56
2014-09-25T11:02:17.067Z,57.43
2014-09-25T11:03:22.053Z,57.99
2014-09-25T11:04:26.727Z,58.13
2014-09-25T11:05:31.418Z,58.2
2014-09-25T11:06:36.700Z,55.71
2014-09-25T11:07:41.686Z,57.2
2014-09-25T11:08:46.377Z,57.61
2014-09-25T11:09:51.051Z,57.95
2014-09-25T11:10:55.053Z,58.04
2014-09-25T11:11:59.742Z,58.03
2014-09-25T11:13:04.728Z,57.28
2014-09-25T11:14:09.402Z,57.3
2014-09-25T11:15:14.092Z,56.48
2014-09-25T11:16:18.797Z,55.69
2014-09-25T11:17:23.471Z,55.74
2014-09-25T11:18:28.457Z,56.88
2014-09-25T11:19:33.444Z,56.24
2014-09-25T11:20:38.118Z,57
2014-09-25T11:21:42.807Z,55.83
2014-09-25T11:22:47.496Z,56.07
2014-09-25T11:23:52.171Z,55.19
2014-09-25T11:24:56.860Z,55.01
2014-09-25T11:26:01.549Z,54.6
2014-09-25T11:27:06.240Z,52.61
2014-09-25T11:28:10.913Z,53.44
2014-09-25T11:29:15.603Z,53.12
2014-09-25T11:30:20.293Z,52.83
2014-09-25T11:31:25.263Z,52.48
2014-09-25T11:32:29.953Z,52.5
2014-09-25T11:33:34.643Z,54.2
2014-09-25T11:34:39.613Z,53.66
2014-09-25T11:35:44.303Z,52.64
2014-09-25T11:36:48.992Z,52.73
2014-09-25T11:37:53.979Z,52.48
2014-09-25T11:38:58.669Z,53.1
2014-09-25T11:40:03.358Z,53.27
2014-09-25T11:41:08.626Z,53.69
2014-09-25T11:42:13.315Z,54.87
2014-09-25T11:43:17.990Z,53.14
2014-09-25T11:44:22.976Z,52.73
2014-09-25T11:45:27.962Z,53.4
2014-09-25T11:46:32.652Z,53.65
2014-09-25T11:47:37.326Z,53.16
2014-09-25T11:48:42.015Z,52.9
2014-09-25T11:49:46.705Z,54.7
2014-09-25T11:50:51.692Z,53.49
2014-09-25T11:51:56.662Z,53.11
2014-09-25T11:53:01.352Z,52.43
2014-09-25T11:54:06.041Z,52.33
2014-09-25T11:55:10.730Z,52.44
2014-09-25T11:56:14.732Z,51.87
2014-09-25T11:57:19.437Z,51.42
2014-09-25T11:58:24.409Z,53.45
2014-09-25T11:59:29.396Z,50.96
2014-09-25T12:00:34.085Z,51.31
2014-09-25T12:01:39.071Z,51.18
2014-09-25T12:02:43.787Z,50.99
2014-09-25T12:03:48.798Z,51.64
2014-09-25T12:04:53.824Z,51.33
2014-09-25T12:05:58.851Z,51.84
2014-09-25T12:07:03.595Z,51.52
2014-09-25T12:08:08.283Z,52.68
2014-09-25T12:09:12.987Z,52.8
2014-09-25T12:10:17.988Z,53.7
2014-09-25T12:11:22.677Z,52.64
2014-09-25T12:12:26.689Z,53.82
2014-09-25T12:13:31.681Z,53.4
2014-09-25T12:14:35.689Z,53.77
2014-09-25T12:15:40.383Z,52.94
2014-09-25T12:16:45.390Z,53.17
2014-09-25T12:17:50.378Z,52.87
2014-09-25T12:18:55.070Z,52.56
2014-09-25T12:19:59.760Z,52.94
2014-09-25T12:21:04.733Z,52.99
2014-09-25T12:22:09.424Z,53.47
2014-09-25T12:23:14.115Z,53.84
2014-09-25T12:24:18.806Z,53.3
2014-09-25T12:25:23.481Z,52.55
2014-09-25T12:26:28.467Z,53.27
2014-09-25T12:27:33.157Z,53.64
2014-09-25T12:28:37.848Z,54.18
2014-09-25T12:29:42.537Z,53.05
2014-09-25T12:30:47.228Z,52.34
2014-09-25T12:31:51.917Z,52.14
2014-09-25T12:32:56.591Z,52.33
2014-09-25T12:34:00.593Z,53.09
2014-09-25T12:35:05.283Z,53.64
2014-09-25T12:36:09.972Z,53.02
2014-09-25T12:37:14.959Z,52.11
2014-09-25T12:38:19.634Z,52.53
2014-09-25T12:39:24.323Z,52.04
2014-09-25T12:40:29.308Z,54.1
2014-09-25T12:41:33.999Z,53.52
2014-09-25T12:42:38.969Z,52.15
2014-09-25T12:43:43.659Z,51.58
2014-09-25T12:44:48.349Z,52.47
2014-09-25T12:45:53.038Z,51.24
2014-09-25T12:46:57.728Z,53.16
2014-09-25T12:48:02.418Z,52.52
2014-09-25T12:49:07.388Z,53.15
2014-09-25T12:50:12.078Z,53.65
2014-09-25T12:51:17.064Z,54.01
2014-09-25T12:52:21.753Z,52.83
2014-09-25T12:53:26.741Z,52.65
2014-09-25T12:54:31.446Z,54.09
2014-09-25T12:55:36.119Z,53.72
2014-09-25T12:56:40.809Z,53.83
2014-09-25T12:57:45.499Z,52.64
2014-09-25T12:58:50.173Z,52.62
2014-09-25T12:59:54.862Z,52.09
2014-09-25T13:00:59.833Z,52.48
2014-09-25T13:02:04.522Z,52.8
2014-09-25T13:03:09.212Z,53.64
2014-09-25T13:04:13.886Z,53.91
2014-09-25T13:05:18.872Z,53.48
2014-09-25T13:06:23.172Z,52.12
2014-09-25T13:07:28.142Z,52.9
2014-09-25T13:08:33.129Z,52.67
2014-09-25T13:09:37.818Z,52.79
2014-09-25T13:10:42.789Z,52.44
2014-09-25T13:11:48.073Z,54.2
2014-09-25T13:12:52.746Z,52.76
2014-09-25T13:13:57.436Z,51.85
2014-09-25T13:15:02.125Z,52.04
2014-09-25T13:16:06.799Z,51.21
2014-09-25T13:17:11.489Z,51.7
2014-09-25T13:18:16.163Z,50.57
2014-09-25T13:19:20.852Z,50.27
2014-09-25T13:20:25.526Z,50.92
2014-09-25T13:21:30.217Z,50.95
2014-09-25T13:22:34.890Z,52.47
2014-09-25T13:23:39.579Z,50.27
2014-09-25T13:24:44.253Z,49.09
2014-09-25T13:25:48.943Z,48.76
2014-09-25T13:26:53.617Z,49.1
2014-09-25T13:27:58.604Z,48.17
2014-09-25T13:29:03.293Z,48.9
2014-09-25T13:30:07.967Z,49.17
2014-09-25T13:31:12.656Z,50.09
2014-09-25T13:32:16.658Z,51.42
2014-09-25T13:33:21.332Z,51.27
2014-09-25T13:34:26.037Z,51.71
2014-09-25T13:35:30.711Z,50.64
2014-09-25T13:36:35.401Z,50.56
2014-09-25T13:37:40.075Z,49.89
2014-09-25T13:38:45.061Z,50.36
2014-09-25T13:39:49.735Z,50.5
2014-09-25T13:40:54.425Z,49
2014-09-25T13:41:59.396Z,49.65
2014-09-25T13:43:04.085Z,51.17
2014-09-25T13:44:08.775Z,51.16
2014-09-25T13:45:13.449Z,50.62
2014-09-25T13:46:18.139Z,51.6
2014-09-25T13:47:22.828Z,50.86
2014-09-25T13:48:27.519Z,51.4
2014-09-25T13:49:32.505Z,51.72
2014-09-25T13:50:37.178Z,51.97
2014-09-25T13:51:41.196Z,51.05
2014-09-25T13:52:46.182Z,51.56
2014-09-25T13:53:50.871Z,52
2014-09-25T13:54:55.843Z,53.1
2014-09-25T13:56:00.533Z,51.1
2014-09-25T13:57:05.519Z,50.46